createdAt,value
2023-09-27T00:00:47.487Z,101447.56
2023-09-27T00:03:14.055Z,101467.56
2023-09-27T00:03:55.145Z,101467.56
2023-09-27T00:05:40.861Z,101355.28
2023-09-27T00:08:07.746Z,101492.91
2023-09-27T00:08:55.124Z,101492.91
2023-09-27T00:10:34.490Z,101515.63
2023-09-27T00:13:00.880Z,101518.34
2023-09-27T00:13:55.125Z,101518.34
2023-09-27T00:15:27.382Z,101466.66
2023-09-27T00:17:53.735Z,101513.22
2023-09-27T00:18:55.310Z,101513.22
2023-09-27T00:20:21.312Z,101518.66
2023-09-27T00:22:47.998Z,101520.53
2023-09-27T00:23:55.123Z,101520.53
2023-09-27T00:25:15.516Z,101450.03
2023-09-27T00:27:43.169Z,101522.63
2023-09-27T00:28:55.499Z,101522.63
2023-09-27T00:30:14.538Z,101520.91
2023-09-27T00:32:42.166Z,101531.56
2023-09-27T00:33:55.110Z,101531.56
2023-09-27T00:35:15.886Z,101522.09
2023-09-27T00:37:42.491Z,101527.53
2023-09-27T00:38:55.073Z,101527.53
2023-09-27T00:40:14.073Z,101525.84
2023-09-27T00:42:40.605Z,101533.75
2023-09-27T00:43:55.168Z,101533.75
2023-09-27T00:45:08.200Z,101551.44
2023-09-27T00:47:38.628Z,101547.31
2023-09-27T00:48:55.164Z,101547.31
2023-09-27T00:50:09.007Z,101520.44
2023-09-27T00:52:40.398Z,101540.38
2023-09-27T00:53:55.088Z,101540.38
2023-09-27T00:55:12.216Z,101558.66
2023-09-27T00:57:39.761Z,101551.75
2023-09-27T00:58:55.131Z,101551.75
2023-09-27T01:00:11.075Z,101475.25
2023-09-27T01:02:39.050Z,101487.59
2023-09-27T01:03:55.183Z,101487.59
2023-09-27T01:05:09.548Z,101541.56
2023-09-27T01:07:38.280Z,101566.53
2023-09-27T01:08:55.259Z,101566.53
2023-09-27T01:10:05.639Z,101510.03
2023-09-27T01:12:32.168Z,101580.09
2023-09-27T01:13:55.112Z,101580.09
2023-09-27T01:14:58.991Z,101558.25
2023-09-27T01:17:25.480Z,101588.34
2023-09-27T01:18:55.455Z,101588.34
2023-09-27T01:19:52.062Z,101586.63
2023-09-27T01:22:18.609Z,101514.28
2023-09-27T01:23:55.101Z,101514.28
2023-09-27T01:24:45.572Z,101585.78
2023-09-27T01:27:14.624Z,101594.03
2023-09-27T01:28:55.495Z,101594.03
2023-09-27T01:29:41.019Z,101484.28
2023-09-27T01:32:07.489Z,101558.97
2023-09-27T01:33:55.094Z,101558.97
2023-09-27T01:34:36.261Z,101482.69
2023-09-27T01:37:02.663Z,101558.41
2023-09-27T01:38:55.214Z,101558.41
2023-09-27T01:39:31.517Z,101581.81
2023-09-27T01:41:58.140Z,101544.53
2023-09-27T01:43:55.120Z,101544.53
2023-09-27T01:44:24.695Z,101596.53
2023-09-27T01:46:51.229Z,101596.66
2023-09-27T01:48:55.251Z,101596.66
2023-09-27T01:49:17.616Z,101595.03
2023-09-27T01:51:44.383Z,101593.41
2023-09-27T01:53:55.098Z,101593.41
2023-09-27T01:54:11.088Z,101583.00
2023-09-27T01:56:37.558Z,101590.28
2023-09-27T01:58:55.329Z,101590.28
2023-09-27T01:59:04.026Z,101407.53
2023-09-27T02:01:30.613Z,101597.09
2023-09-27T02:03:55.244Z,101597.09
2023-09-27T02:03:57.506Z,101535.81
2023-09-27T02:06:24.638Z,101601.66
2023-09-27T02:08:51.212Z,101588.09
2023-09-27T02:08:55.342Z,101588.09
2023-09-27T02:11:20.443Z,101603.44
2023-09-27T02:13:47.392Z,101605.13
2023-09-27T02:13:55.124Z,101605.13
2023-09-27T02:16:14.137Z,101538.44
2023-09-27T02:18:40.565Z,101614.06
2023-09-27T02:18:55.422Z,101614.06
2023-09-27T02:21:07.144Z,101621.13
2023-09-27T02:23:33.567Z,101623.88
2023-09-27T02:23:55.094Z,101623.88
2023-09-27T02:26:00.165Z,101610.22
2023-09-27T02:28:26.605Z,101616.13
2023-09-27T02:28:55.428Z,101616.13
2023-09-27T02:30:53.062Z,101595.56
2023-09-27T02:33:20.101Z,101586.22
2023-09-27T02:33:55.114Z,101586.22
2023-09-27T02:35:46.548Z,101547.03
2023-09-27T02:38:13.030Z,101604.38
2023-09-27T02:38:55.119Z,101604.38
2023-09-27T02:40:41.218Z,101590.50
2023-09-27T02:43:07.617Z,101579.25
2023-09-27T02:43:55.143Z,101579.25
2023-09-27T02:45:35.278Z,101465.81
2023-09-27T02:48:02.728Z,101520.47
2023-09-27T02:48:55.420Z,101520.47
2023-09-27T02:50:29.266Z,101563.66
2023-09-27T02:52:55.697Z,101566.19
2023-09-27T02:53:55.113Z,101566.19
2023-09-27T02:55:24.228Z,101571.28
2023-09-27T02:57:55.047Z,101584.44
2023-09-27T02:58:55.229Z,101584.44
2023-09-27T03:00:22.916Z,101579.91
2023-09-27T03:02:49.789Z,101585.94
2023-09-27T03:03:55.226Z,101585.94
2023-09-27T03:05:16.512Z,101595.47
2023-09-27T03:07:45.806Z,101597.16
2023-09-27T03:08:55.386Z,101597.16
2023-09-27T03:10:12.690Z,101607.53
2023-09-27T03:12:40.713Z,101592.56
2023-09-27T03:13:55.169Z,101592.56
2023-09-27T03:15:13.918Z,101531.09
2023-09-27T03:17:45.180Z,101567.19
2023-09-27T03:18:55.399Z,101567.19
2023-09-27T03:20:20.289Z,101505.94
2023-09-27T03:22:47.680Z,101510.06
2023-09-27T03:23:55.121Z,101510.06
2023-09-27T03:25:14.640Z,101597.22
2023-09-27T03:27:41.077Z,101593.97
2023-09-27T03:28:55.380Z,101593.97
2023-09-27T03:30:08.013Z,101483.03
2023-09-27T03:32:34.545Z,101597.78
2023-09-27T03:33:55.171Z,101597.78
2023-09-27T03:35:01.409Z,101579.00
2023-09-27T03:37:27.901Z,101589.53
2023-09-27T03:38:55.213Z,101589.53
2023-09-27T03:39:54.362Z,101548.72
2023-09-27T03:42:21.337Z,101595.56
2023-09-27T03:43:55.144Z,101595.56
2023-09-27T03:44:51.387Z,101602.53
2023-09-27T03:47:18.013Z,101613.78
2023-09-27T03:48:55.422Z,101613.78
2023-09-27T03:49:44.764Z,101595.31
2023-09-27T03:52:11.181Z,101614.41
2023-09-27T03:53:55.121Z,101614.41
2023-09-27T03:54:37.854Z,101620.47
2023-09-27T03:57:05.121Z,101581.88
2023-09-27T03:58:55.148Z,101581.88
2023-09-27T03:59:31.565Z,101616.06
2023-09-27T04:01:58.094Z,101606.63
2023-09-27T04:03:55.328Z,101606.63
2023-09-27T04:04:25.394Z,101614.13
2023-09-27T04:06:52.718Z,101619.41
2023-09-27T04:08:55.361Z,101619.41
2023-09-27T04:09:19.099Z,101575.75
2023-09-27T04:11:45.616Z,101529.59
2023-09-27T04:13:55.222Z,101529.59
2023-09-27T04:14:12.943Z,101631.88
2023-09-27T04:16:39.412Z,101629.28
2023-09-27T04:18:55.255Z,101629.28
2023-09-27T04:19:05.886Z,101629.34
2023-09-27T04:21:32.504Z,101633.78
2023-09-27T04:23:55.135Z,101633.78
2023-09-27T04:24:00.571Z,101611.59
2023-09-27T04:26:27.952Z,101646.19
2023-09-27T04:28:54.890Z,101631.34
2023-09-27T04:28:55.147Z,101631.34
2023-09-27T04:31:21.913Z,101642.78
2023-09-27T04:33:48.621Z,101625.41
2023-09-27T04:33:55.170Z,101625.41
2023-09-27T04:36:18.931Z,101609.13
2023-09-27T04:38:46.245Z,101617.59
2023-09-27T04:38:55.178Z,101617.59
2023-09-27T04:41:17.070Z,101642.19
2023-09-27T04:43:44.065Z,101632.72
2023-09-27T04:43:55.129Z,101632.72
2023-09-27T04:46:15.202Z,101639.91
2023-09-27T04:48:41.793Z,101638.16
2023-09-27T04:48:55.217Z,101638.16
2023-09-27T04:51:08.334Z,101648.69
2023-09-27T04:53:38.182Z,101645.38
2023-09-27T04:53:55.160Z,101645.38
2023-09-27T04:56:07.282Z,101642.41
2023-09-27T04:58:35.235Z,101651.97
2023-09-27T04:58:55.313Z,101651.97
2023-09-27T05:01:03.453Z,101644.44
2023-09-27T05:03:29.937Z,101648.81
2023-09-27T05:03:55.207Z,101648.81
2023-09-27T05:05:56.486Z,101654.22
2023-09-27T05:08:22.913Z,101642.91
2023-09-27T05:08:55.214Z,101642.91
2023-09-27T05:10:49.294Z,101590.16
2023-09-27T05:13:15.853Z,101638.31
2023-09-27T05:13:55.149Z,101638.31
2023-09-27T05:15:42.328Z,101626.13
2023-09-27T05:18:08.827Z,101633.09
2023-09-27T05:18:55.291Z,101633.09
2023-09-27T05:20:36.768Z,101601.44
2023-09-27T05:23:03.494Z,101580.19
2023-09-27T05:23:55.136Z,101580.19
2023-09-27T05:25:30.029Z,101620.59
2023-09-27T05:27:58.128Z,101578.75
2023-09-27T05:28:55.144Z,101578.75
2023-09-27T05:30:24.615Z,101641.34
2023-09-27T05:32:51.136Z,101528.97
2023-09-27T05:33:55.140Z,101528.97
2023-09-27T05:35:17.690Z,101585.69
2023-09-27T05:37:45.662Z,101674.97
2023-09-27T05:38:55.336Z,101674.97
2023-09-27T05:40:12.456Z,101682.75
2023-09-27T05:42:39.786Z,101689.53
2023-09-27T05:43:55.227Z,101689.53
2023-09-27T05:45:07.362Z,101684.88
2023-09-27T05:47:34.388Z,101641.66
2023-09-27T05:48:55.621Z,101641.66
2023-09-27T05:50:00.937Z,101677.28
2023-09-27T05:52:28.341Z,101622.19
2023-09-27T05:53:55.161Z,101622.19
2023-09-27T05:54:54.868Z,101668.44
2023-09-27T05:57:22.638Z,101630.38
2023-09-27T05:58:55.147Z,101630.38
2023-09-27T05:59:49.449Z,101674.16
2023-09-27T06:02:21.088Z,101609.34
2023-09-27T06:03:55.263Z,101609.34
2023-09-27T06:08:28.419Z,101697.03
2023-09-27T06:08:55.254Z,101697.03
2023-09-27T06:10:54.897Z,101690.25
2023-09-27T06:13:21.239Z,101646.38
2023-09-27T06:13:55.147Z,101646.38
2023-09-27T06:15:50.694Z,101678.34
2023-09-27T06:18:17.662Z,101691.25
2023-09-27T06:18:55.150Z,101691.25
2023-09-27T06:20:45.082Z,101686.50
2023-09-27T06:23:11.550Z,101676.13
2023-09-27T06:23:55.139Z,101676.13
2023-09-27T06:25:38.372Z,101666.16
2023-09-27T06:28:05.266Z,101632.91
2023-09-27T06:28:55.145Z,101632.91
2023-09-27T06:30:32.064Z,101650.34
2023-09-27T06:32:58.631Z,101644.38
2023-09-27T06:33:55.156Z,101644.38
2023-09-27T06:35:25.365Z,101606.44
2023-09-27T06:37:52.002Z,101649.22
2023-09-27T06:38:55.407Z,101649.22
2023-09-27T06:40:20.456Z,101602.00
2023-09-27T06:42:50.926Z,101630.88
2023-09-27T06:43:55.249Z,101630.88
2023-09-27T06:45:18.062Z,101556.53
2023-09-27T06:47:49.121Z,101632.44
2023-09-27T06:48:55.374Z,101632.44
2023-09-27T06:50:18.119Z,101623.47
2023-09-27T06:52:46.577Z,101473.88
2023-09-27T06:53:55.174Z,101473.88
2023-09-27T06:55:14.157Z,101618.91
2023-09-27T06:57:41.592Z,101623.59
2023-09-27T06:58:55.152Z,101623.59
2023-09-27T07:00:19.565Z,101630.91
2023-09-27T07:02:49.788Z,101622.72
2023-09-27T07:03:55.313Z,101622.72
2023-09-27T07:05:17.584Z,101629.84
2023-09-27T07:07:44.281Z,101616.78
2023-09-27T07:08:55.149Z,101616.78
2023-09-27T07:10:10.832Z,101623.78
2023-09-27T07:12:38.082Z,101620.25
2023-09-27T07:13:55.140Z,101620.25
2023-09-27T07:15:13.932Z,101589.66
2023-09-27T07:17:42.091Z,101598.91
2023-09-27T07:18:55.470Z,101598.91
2023-09-27T07:20:30.117Z,101625.38
2023-09-27T07:22:57.838Z,101622.59
2023-09-27T07:23:55.134Z,101622.59
2023-09-27T07:25:24.714Z,101618.13
2023-09-27T07:27:54.261Z,101614.78
2023-09-27T07:28:55.472Z,101614.78
2023-09-27T07:30:25.096Z,101609.03
2023-09-27T07:32:52.702Z,101610.09
2023-09-27T07:33:55.145Z,101610.09
2023-09-27T07:35:20.127Z,101602.06
2023-09-27T07:37:46.530Z,101485.16
2023-09-27T07:38:55.408Z,101485.16
2023-09-27T07:40:14.237Z,101523.31
2023-09-27T07:42:45.437Z,101482.00
2023-09-27T07:43:55.300Z,101482.00
2023-09-27T07:45:23.790Z,101446.00
2023-09-27T07:47:54.625Z,101451.09
2023-09-27T07:48:55.404Z,101451.09
2023-09-27T07:50:23.284Z,101410.25
2023-09-27T07:52:49.854Z,101414.28
2023-09-27T07:53:55.414Z,101414.28
2023-09-27T07:55:18.543Z,101403.75
2023-09-27T07:57:45.230Z,101393.53
2023-09-27T07:58:55.759Z,101393.53
2023-09-27T08:00:16.816Z,101290.97
2023-09-27T08:02:46.475Z,101351.09
2023-09-27T08:03:55.358Z,101351.09
2023-09-27T08:05:15.253Z,101225.22
2023-09-27T08:07:41.763Z,101235.25
2023-09-27T08:08:55.426Z,101235.25
2023-09-27T08:10:21.336Z,101310.56
2023-09-27T08:12:48.887Z,101230.19
2023-09-27T08:13:55.156Z,101230.19
2023-09-27T08:15:15.914Z,101280.97
2023-09-27T08:17:43.270Z,101300.94
2023-09-27T08:18:55.174Z,101300.94
2023-09-27T08:20:12.720Z,101311.94
2023-09-27T08:22:43.030Z,101202.06
2023-09-27T08:23:55.155Z,101202.06
2023-09-27T08:25:15.402Z,101229.22
2023-09-27T08:27:45.614Z,101173.59
2023-09-27T08:28:55.432Z,101173.59
2023-09-27T08:30:13.052Z,101124.91
2023-09-27T08:32:40.277Z,101173.00
2023-09-27T08:33:55.162Z,101173.00
2023-09-27T08:35:08.114Z,101180.16
2023-09-27T08:37:35.194Z,101150.31
2023-09-27T08:38:55.382Z,101150.31
2023-09-27T08:40:02.281Z,101109.63
2023-09-27T08:42:30.155Z,101087.19
2023-09-27T08:43:55.175Z,101087.19
2023-09-27T08:44:58.760Z,101080.13
2023-09-27T08:47:25.376Z,101048.75
2023-09-27T08:48:55.175Z,101048.75
2023-09-27T08:49:52.311Z,101042.66
2023-09-27T08:52:19.789Z,101060.75
2023-09-27T08:53:55.210Z,101060.75
2023-09-27T08:54:46.354Z,101068.75
2023-09-27T08:57:13.172Z,101104.06
2023-09-27T08:58:55.183Z,101104.06
2023-09-27T08:59:40.226Z,101088.38
2023-09-27T09:02:07.280Z,100977.59
2023-09-27T09:03:55.333Z,100977.59
2023-09-27T09:04:36.737Z,100960.50
2023-09-27T09:07:04.112Z,100939.03
2023-09-27T09:08:55.295Z,100939.03
2023-09-27T09:09:31.628Z,100933.41
2023-09-27T09:12:01.967Z,101024.34
2023-09-27T09:13:55.235Z,101024.34
2023-09-27T09:14:46.095Z,100902.44
2023-09-27T09:17:16.370Z,100914.88
2023-09-27T09:18:56.469Z,100914.88
2023-09-27T09:19:45.587Z,100833.81
2023-09-27T09:22:14.046Z,100945.41
2023-09-27T09:23:55.518Z,100945.41
2023-09-27T09:24:46.364Z,100917.25
2023-09-27T09:27:16.914Z,100877.97
2023-09-27T09:28:55.467Z,100877.97
2023-09-27T09:29:50.630Z,100955.97
2023-09-27T09:32:19.556Z,100890.34
2023-09-27T09:33:55.256Z,100890.34
2023-09-27T09:34:52.572Z,100896.06
2023-09-27T09:37:19.911Z,100895.56
2023-09-27T09:38:55.346Z,100895.56
2023-09-27T09:39:48.289Z,100952.06
2023-09-27T09:42:31.216Z,100917.16
2023-09-27T09:43:55.254Z,100917.16
2023-09-27T09:45:07.763Z,100912.44
2023-09-27T09:47:36.931Z,100905.31
2023-09-27T09:48:55.235Z,100905.31
2023-09-27T09:50:09.851Z,100854.25
2023-09-27T09:52:40.194Z,100862.66
2023-09-27T09:53:55.261Z,100862.66
2023-09-27T09:55:22.642Z,100855.66
2023-09-27T09:58:30.542Z,100793.66
2023-09-27T09:58:55.293Z,100793.66
2023-09-27T10:00:59.310Z,100867.28
2023-09-27T10:03:32.077Z,100902.53
2023-09-27T10:03:55.384Z,100902.53
2023-09-27T10:06:02.563Z,100809.47
2023-09-27T10:08:39.019Z,100902.31
2023-09-27T10:08:55.350Z,100902.31
2023-09-27T10:11:05.584Z,100790.78
2023-09-27T10:13:34.928Z,100869.25
2023-09-27T10:13:55.272Z,100869.25
2023-09-27T10:16:02.187Z,100626.28
2023-09-27T10:18:34.689Z,100853.28
2023-09-27T10:18:55.312Z,100853.28
2023-09-27T10:21:09.061Z,100757.72
2023-09-27T10:23:47.524Z,100865.63
2023-09-27T10:23:55.243Z,100865.63
2023-09-27T10:26:29.992Z,100876.34
2023-09-27T10:28:55.243Z,100876.34
2023-09-27T10:29:04.082Z,100877.44
2023-09-27T10:31:32.118Z,100932.25
2023-09-27T10:33:55.255Z,100932.25
2023-09-27T10:33:58.559Z,100911.84
2023-09-27T10:36:24.980Z,100952.19
2023-09-27T10:38:51.696Z,100766.44
2023-09-27T10:38:55.280Z,100766.44
2023-09-27T10:41:33.698Z,100758.56
2023-09-27T10:43:55.250Z,100758.56
2023-09-27T10:44:03.869Z,100814.53
2023-09-27T10:46:43.472Z,100703.63
2023-09-27T10:48:55.337Z,100703.63
2023-09-27T10:49:10.792Z,100744.00
2023-09-27T10:51:38.867Z,100718.41
2023-09-27T10:53:55.747Z,100718.41
2023-09-27T10:54:08.224Z,100686.09
2023-09-27T10:56:35.456Z,100727.78
2023-09-27T10:58:55.334Z,100727.78
2023-09-27T10:59:02.294Z,100681.13
2023-09-27T11:01:29.327Z,100715.22
2023-09-27T11:03:59.848Z,100741.00
2023-09-27T11:04:00.235Z,100741.00
2023-09-27T11:06:28.283Z,100752.56
2023-09-27T11:09:10.259Z,100749.31
2023-09-27T11:09:10.408Z,100749.31
2023-09-27T11:11:36.786Z,100809.78
2023-09-27T11:13:55.432Z,100809.78
2023-09-27T11:14:03.215Z,100698.84
2023-09-27T11:16:30.561Z,100817.59
2023-09-27T11:18:55.420Z,100817.59
2023-09-27T11:18:57.535Z,100881.09
2023-09-27T11:21:27.057Z,100830.72
2023-09-27T11:23:53.727Z,100821.22
2023-09-27T11:23:55.733Z,100821.22
2023-09-27T11:26:23.586Z,100895.31
2023-09-27T11:28:58.172Z,100838.66
2023-09-27T11:28:58.359Z,100838.66
2023-09-27T11:31:26.535Z,100926.38
2023-09-27T11:33:53.500Z,100885.81
2023-09-27T11:33:55.335Z,100885.81
2023-09-27T11:36:20.774Z,100890.50
2023-09-27T11:38:51.657Z,100735.88
2023-09-27T11:38:55.372Z,100735.88
2023-09-27T11:41:21.203Z,100877.97
2023-09-27T11:43:47.727Z,100918.47
2023-09-27T11:43:55.331Z,100918.47
2023-09-27T11:46:33.172Z,100890.75
2023-09-27T11:48:55.357Z,100890.75
2023-09-27T11:49:11.842Z,100966.25
2023-09-27T11:51:38.838Z,100885.53
2023-09-27T11:53:55.769Z,100885.53
2023-09-27T11:54:06.298Z,100938.56
2023-09-27T11:56:34.999Z,101033.09
2023-09-27T11:58:55.335Z,101033.09
2023-09-27T11:59:02.426Z,100947.63
2023-09-27T12:01:28.928Z,100908.69
2023-09-27T12:03:55.969Z,100978.03
2023-09-27T12:03:56.847Z,100978.03
2023-09-27T12:06:23.091Z,100891.63
2023-09-27T12:08:49.882Z,100838.53
2023-09-27T12:08:55.881Z,100838.53
2023-09-27T12:11:16.508Z,100925.41
2023-09-27T12:13:43.016Z,100834.31
2023-09-27T12:13:55.562Z,100834.31
2023-09-27T12:16:09.584Z,100988.00
2023-09-27T12:18:36.094Z,100831.44
2023-09-27T12:18:55.339Z,100831.44
2023-09-27T12:21:02.728Z,100934.09
2023-09-27T12:23:29.851Z,100896.19
2023-09-27T12:23:55.610Z,100896.19
2023-09-27T12:25:56.991Z,100827.22
2023-09-27T12:28:23.944Z,100905.59
2023-09-27T12:28:55.351Z,100905.59
2023-09-27T12:30:50.545Z,100801.59
2023-09-27T12:33:19.310Z,100862.50
2023-09-27T12:33:55.713Z,100862.50
2023-09-27T12:35:48.087Z,100883.13
2023-09-27T12:38:14.677Z,100857.25
2023-09-27T12:38:55.983Z,100857.25
2023-09-27T12:40:41.147Z,100933.06
2023-09-27T12:43:08.920Z,100925.88
2023-09-27T12:43:55.332Z,100925.88
2023-09-27T12:45:38.903Z,100870.81
2023-09-27T12:48:05.942Z,100879.78
2023-09-27T12:48:55.461Z,100879.78
2023-09-27T12:50:32.509Z,100882.91
2023-09-27T12:53:02.548Z,100971.44
2023-09-27T12:53:55.441Z,100971.44
2023-09-27T12:55:28.959Z,100792.66
2023-09-27T12:57:55.357Z,100880.91
2023-09-27T12:58:55.324Z,100880.91
2023-09-27T13:00:21.986Z,100899.69
2023-09-27T13:02:51.697Z,100909.47
2023-09-27T13:03:56.482Z,100909.47
2023-09-27T13:05:18.425Z,100851.44
2023-09-27T13:07:44.965Z,100839.81
2023-09-27T13:08:55.542Z,100839.81
2023-09-27T13:10:11.635Z,100864.00
2023-09-27T13:12:44.127Z,100846.03
2023-09-27T13:13:55.359Z,100846.03
2023-09-27T13:15:11.667Z,100836.31
2023-09-27T13:17:38.441Z,100910.47
2023-09-27T13:18:55.594Z,100910.47
2023-09-27T13:20:11.517Z,100881.22
2023-09-27T13:22:38.604Z,100848.34
2023-09-27T13:23:55.373Z,100848.34
2023-09-27T13:25:07.844Z,100900.31
2023-09-27T13:27:34.755Z,100793.75
2023-09-27T13:28:55.443Z,100793.75
2023-09-27T13:30:02.185Z,100717.81
2023-09-27T13:32:29.013Z,100792.97
2023-09-27T13:34:09.549Z,100792.97
2023-09-27T13:34:55.441Z,100790.72
2023-09-27T13:37:21.950Z,100739.97
2023-09-27T13:38:55.556Z,100739.97
2023-09-27T13:39:48.468Z,100855.09
2023-09-27T13:42:14.859Z,100748.66
2023-09-27T13:43:55.698Z,100748.66
2023-09-27T13:44:41.511Z,100839.50
2023-09-27T13:47:08.019Z,100772.78
2023-09-27T13:48:55.692Z,100772.78
2023-09-27T13:49:34.707Z,100754.44
2023-09-27T13:52:01.773Z,100723.66
2023-09-27T13:53:55.366Z,100723.66
2023-09-27T13:54:28.327Z,100836.97
2023-09-27T13:56:54.864Z,100830.81
2023-09-27T13:58:55.620Z,100830.81
2023-09-27T13:59:21.341Z,100783.53
2023-09-27T14:01:47.900Z,100752.94
2023-09-27T14:03:55.461Z,100752.94
2023-09-27T14:04:14.626Z,100802.31
2023-09-27T14:06:41.773Z,100811.13
2023-09-27T14:08:55.797Z,100811.13
2023-09-27T14:09:08.477Z,100817.06
2023-09-27T14:11:35.089Z,100840.44
2023-09-27T14:13:55.798Z,100840.44
2023-09-27T14:14:01.722Z,100782.59
2023-09-27T14:16:28.956Z,100704.22
2023-09-27T14:18:55.803Z,100853.78
2023-09-27T14:18:56.376Z,100853.78
2023-09-27T14:21:22.375Z,100773.25
2023-09-27T14:23:49.861Z,100759.53
2023-09-27T14:23:55.543Z,100759.53
2023-09-27T14:26:18.007Z,100757.19
2023-09-27T14:28:44.386Z,100693.31
2023-09-27T14:28:55.353Z,100693.31
2023-09-27T14:31:11.316Z,100710.75
2023-09-27T14:33:37.949Z,100806.63
2023-09-27T14:33:56.963Z,100806.63
2023-09-27T14:36:05.053Z,100845.97
2023-09-27T14:38:36.543Z,100713.56
2023-09-27T14:38:55.370Z,100713.56
2023-09-27T14:41:09.873Z,100810.31
2023-09-27T14:43:38.633Z,100812.50
2023-09-27T14:43:55.743Z,100812.50
2023-09-27T14:46:10.175Z,100810.75
2023-09-27T14:48:37.043Z,100830.22
2023-09-27T14:48:55.364Z,100830.22
2023-09-27T14:51:04.165Z,100742.38
2023-09-27T14:53:31.007Z,100662.88
2023-09-27T14:53:55.669Z,100662.88
2023-09-27T14:56:10.599Z,100678.47
2023-09-27T14:58:37.379Z,100744.34
2023-09-27T14:58:55.424Z,100744.34
2023-09-27T15:01:05.104Z,100685.09
2023-09-27T15:03:33.052Z,100795.38
2023-09-27T15:03:55.753Z,100795.38
2023-09-27T15:06:03.848Z,100795.38
2023-09-27T15:08:31.132Z,100777.44
2023-09-27T15:08:55.365Z,100777.44
2023-09-27T15:10:57.968Z,100794.06
2023-09-27T15:13:24.544Z,100743.75
2023-09-27T15:13:55.939Z,100743.75
2023-09-27T15:15:51.104Z,100800.94
2023-09-27T15:18:17.656Z,100633.72
2023-09-27T15:18:55.379Z,100633.72
2023-09-27T15:20:44.127Z,100713.44
2023-09-27T15:23:10.483Z,100716.63
2023-09-27T15:23:55.686Z,100716.63
2023-09-27T15:25:37.134Z,100750.31
2023-09-27T15:28:03.938Z,100821.03
2023-09-27T15:28:55.386Z,100821.03
2023-09-27T15:30:30.293Z,100787.69
2023-09-27T15:32:56.660Z,100769.56
2023-09-27T15:33:55.400Z,100769.56
2023-09-27T15:35:23.291Z,100775.69
2023-09-27T15:37:53.293Z,100811.72
2023-09-27T15:38:55.407Z,100811.72
2023-09-27T15:40:20.411Z,100823.72
2023-09-27T15:42:54.773Z,100741.78
2023-09-27T15:43:55.853Z,100741.78
2023-09-27T15:45:22.006Z,100787.34
2023-09-27T15:47:49.613Z,100794.84
2023-09-27T15:48:55.383Z,100794.84
2023-09-27T15:50:16.425Z,100704.19
2023-09-27T15:52:43.169Z,100782.50
2023-09-27T15:54:07.265Z,100782.50
2023-09-27T15:55:10.383Z,100808.91
2023-09-27T15:57:38.979Z,100821.28
2023-09-27T15:58:55.420Z,100821.28
2023-09-27T16:00:09.311Z,100794.56
2023-09-27T16:02:36.140Z,100848.88
2023-09-27T16:03:55.776Z,100848.88
2023-09-27T16:05:05.037Z,100764.63
2023-09-27T16:07:32.165Z,100769.34
2023-09-27T16:08:55.380Z,100769.34
2023-09-27T16:09:58.795Z,100848.88
2023-09-27T16:12:25.165Z,100867.78
2023-09-27T16:13:55.570Z,100867.78
2023-09-27T16:14:52.046Z,100863.34
2023-09-27T16:17:18.823Z,100866.25
2023-09-27T16:18:55.374Z,100866.25
2023-09-27T16:19:45.273Z,100866.44
2023-09-27T16:22:11.887Z,100781.91
2023-09-27T16:23:57.816Z,100781.91
2023-09-27T16:24:38.335Z,100778.47
2023-09-27T16:27:05.163Z,100871.88
2023-09-27T16:28:55.450Z,100871.88
2023-09-27T16:29:32.387Z,100843.78
2023-09-27T16:31:59.598Z,100897.38
2023-09-27T16:33:55.812Z,100897.38
2023-09-27T16:34:26.425Z,100875.25
2023-09-27T16:36:52.940Z,100897.97
2023-09-27T16:38:55.400Z,100897.97
2023-09-27T16:39:22.499Z,100914.00
2023-09-27T16:41:50.234Z,100915.72
2023-09-27T16:43:55.568Z,100915.72
2023-09-27T16:44:16.682Z,100919.38
2023-09-27T16:46:43.307Z,100881.06
2023-09-27T16:48:55.394Z,100881.06
2023-09-27T16:49:09.719Z,100916.16
2023-09-27T16:51:36.393Z,100930.78
2023-09-27T16:53:55.607Z,100930.78
2023-09-27T16:54:03.308Z,100872.50
2023-09-27T16:56:29.744Z,100912.22
2023-09-27T16:58:57.390Z,100907.59
2023-09-27T16:58:57.616Z,100907.59
2023-09-27T17:01:24.274Z,100900.72
2023-09-27T17:03:51.970Z,100834.59
2023-09-27T17:03:56.171Z,100834.59
2023-09-27T17:06:20.003Z,100865.31
2023-09-27T17:08:48.122Z,100873.88
2023-09-27T17:08:55.438Z,100873.88
2023-09-27T17:11:23.281Z,100890.31
2023-09-27T17:13:51.068Z,100914.31
2023-09-27T17:13:55.695Z,100914.31
2023-09-27T17:16:22.313Z,100907.00
2023-09-27T17:18:48.904Z,100900.66
2023-09-27T17:18:55.404Z,100900.66
2023-09-27T17:21:15.307Z,100824.66
2023-09-27T17:23:41.762Z,100817.63
2023-09-27T17:23:55.689Z,100817.63
2023-09-27T17:26:08.389Z,100886.56
2023-09-27T17:28:34.955Z,100864.72
2023-09-27T17:28:55.504Z,100864.72
2023-09-27T17:31:01.361Z,100863.72
2023-09-27T17:33:28.406Z,100910.47
2023-09-27T17:33:55.647Z,100910.47
2023-09-27T17:35:59.156Z,100836.47
2023-09-27T17:38:25.612Z,100886.97
2023-09-27T17:38:55.421Z,100886.97
2023-09-27T17:40:52.136Z,100701.84
2023-09-27T17:43:18.671Z,100808.81
2023-09-27T17:43:55.656Z,100808.81
2023-09-27T17:45:50.516Z,100799.69
2023-09-27T17:48:16.984Z,100768.72
2023-09-27T17:48:55.393Z,100768.72
2023-09-27T17:50:43.425Z,100880.00
2023-09-27T17:53:10.246Z,100880.28
2023-09-27T17:53:55.750Z,100880.28
2023-09-27T17:55:37.706Z,100885.88
2023-09-27T17:58:04.859Z,100844.03
2023-09-27T17:58:55.650Z,100844.03
2023-09-27T18:00:31.816Z,100702.13
2023-09-27T18:02:58.701Z,100866.75
2023-09-27T18:03:55.772Z,100866.75
2023-09-27T18:05:25.133Z,100842.94
2023-09-27T18:07:51.559Z,100871.53
2023-09-27T18:08:55.406Z,100871.53
2023-09-27T18:10:18.094Z,100868.44
2023-09-27T18:12:44.482Z,100793.31
2023-09-27T18:13:55.795Z,100793.31
2023-09-27T18:15:25.174Z,100857.88
2023-09-27T18:17:54.595Z,100863.19
2023-09-27T18:18:55.466Z,100863.19
2023-09-27T18:20:21.128Z,100867.16
2023-09-27T18:22:47.580Z,100878.31
2023-09-27T18:23:56.014Z,100878.31
2023-09-27T18:25:14.558Z,100829.78
2023-09-27T18:27:40.979Z,100764.13
2023-09-27T18:28:55.606Z,100764.13
2023-09-27T18:30:08.555Z,100874.97
2023-09-27T18:32:35.717Z,100815.88
2023-09-27T18:33:55.611Z,100815.88
2023-09-27T18:35:02.339Z,100805.28
2023-09-27T18:37:29.099Z,100873.84
2023-09-27T18:38:55.437Z,100873.84
2023-09-27T18:39:55.785Z,100844.94
2023-09-27T18:42:22.789Z,100868.09
2023-09-27T18:43:55.800Z,100868.09
2023-09-27T18:44:49.257Z,100863.00
2023-09-27T18:47:16.145Z,100735.16
2023-09-27T18:48:55.418Z,100735.16
2023-09-27T18:49:42.718Z,100871.28
2023-09-27T18:52:09.346Z,100809.91
2023-09-27T18:53:55.944Z,100809.91
2023-09-27T18:54:35.891Z,100871.78